Cashmere, WA

5:10 PM PDT on September 03, 2015 (GMT -0700)
Sky Meadows | | Change Station
CLOSE
Current Station
Personal Weather Station
Location: Cashmere, WA
Elevation: 2083 ft
Nearby Weather Stations

Elev 2083 ft 47.50 °N, 120.52 °W | Updated 1 day ago

Partly Cloudy
Partly Cloudy
60 °F
Feels Like 60 °F
N
11
Wind Variable Wind from NW
Gusts 15 mph

Today
High -- | Low -- °F
--% Chance of Precip.
Yesterday
High -- | Low -- °F
Precip. -- in
6:23 AM 7:38 PM
Waning Gibbous, 65% visible
Pressure 29.88 in
Visibility 10.0 miles
Clouds Scattered Clouds 5000 ft
Mostly Cloudy 7000 ft
Overcast 10000 ft
Dew Point 30 °F
Humidity 33%
Rainfall in
Snow Depth Not available.
UV 1 out of 12
Pollen 3.80 out of 12
Air Quality Not available.
Flu Activity Not available.
METAR KEAT 032355Z AUTO 26007G19KT 10SM -RA SCT050 BKN070 OVC100 19/01 A2989 RMK AO2 PK WND 32026/2303 RAE2256B18 SLP119 P0000 60000 T01890011 10228 20178 55001
Pressure 29.88 in
Visibility 10.0 miles
Clouds Scattered Clouds 5000 ft
Mostly Cloudy 7000 ft
Overcast 10000 ft
Dew Point 30 °F
Humidity 33%
Rainfall in
Snow Depth Not available.
UV 1 out of 12
Pollen 3.80 out of 12
Air Quality Not available.
Flu Activity Not available.
METAR KEAT 032355Z AUTO 26007G19KT 10SM -RA SCT050 BKN070 OVC100 19/01 A2989 RMK AO2 PK WND 32026/2303 RAE2256B18 SLP119 P0000 60000 T01890011 10228 20178 55001

10-Day Weather Forecast

×

Almanac

Astronomy

Sep. 03, 2015 Rise Set
Actual Time
Civil Twilight
Nautical Twilight
Astronomical Twilight
Moon
Length of Visible Light
Length of Day
Tomorrow will be .
, % of the Moon is Illuminated

Today's Extremes

State Highs State Lows

Community

WunderPhotos

Upload Photos

1,852,069 photos uploaded!

WunderBlogs® & News

Nearby

Air Quality

  Air Quality AQ Index Pollutant
Not available.

Snow Depth

Station Depth Elevation

Earthquake Activity

City Distance Mag. Time & Date
Minimum magnitude displayed is 2.5.

Coastal Water Temperatures

Place Temperature

Stations

Nearby Weather Stations

Station Location Temp. Windchill Dew Point Humidity Wind Precip. Elev Updated Type